• Join FlightAware (Why Join?)
  • Login
  • US Flag 
10:15AM EDT


 

Airport Tracker/Info


-or-


 

Live Flight TrackerFlight Track Log ✈ AWE3374 ✈ 15-Jun-2013 ✈ KPWM - KDCA

Flight Track Log - Related Links

Times and Time Zones

All times are in EDT time to prevent confusion due to time zone crossing. See the AWE3374 flight status page for this flight to view local times or setup timezone preferences in your user account.

Time Position Orientation Groundspeed Altitude Reporting Facility
EDT Latitude Longitude Course Direction KTS MPH feet Rate Location/Type
12:35PM 43.6522 -70.4458 216° Southwest 197 227 4,000  Level Boston Center
12:36PM 43.4565 -70.2730 229° Southwest  Level FlightAware Approximate
12:36PM 43.6031 -70.4961 217° Southwest 231 266 7,200  Level Boston Center
12:37PM 43.3933 -70.3828 226° Southwest  Level FlightAware Approximate
12:37PM 43.5206 -70.5417 202° Southwest 269 310 10,500  Level Boston Center
12:38PM 43.3232 -70.4845 232° Southwest  Level FlightAware Approximate
12:38PM 43.4461 -70.5783 200° South 316 364 12,800  Level Boston Center
12:39PM 43.2581 -70.5919 216° Southwest  Level FlightAware Approximate
12:39PM 43.3489 -70.6269 200° South 335 386 15,600  Level Boston Center
12:40PM 43.1756 -70.6744 216° Southwest  Level FlightAware Approximate
12:40PM 43.2661 -70.6722 202° Southwest 351 404 16,100  Level Boston Center
12:41PM 43.1647 -70.7236 200° South 357 411 17,500 1,800 Climbing Boston Center
12:42PM 43.0761 -70.7831 206° Southwest 362 417 19,800 2,280 Climbing Boston Center
12:43PM 42.9811 -70.8508 208° Southwest 362 417 22,100 1,980 Climbing Boston Center
12:44PM 42.8842 -70.9214 208° Southwest 376 433 23,800 1,680 Climbing Boston Center
12:45PM 42.7894 -71.0028 212° Southwest 396 456 25,500 1,500 Climbing Boston Center
12:46PM 42.6947 -71.0956 216° Southwest 413 475 26,900 1,380 Climbing Boston Center
12:47PM 42.5978 -71.1933 217° Southwest 431 496 28,300 1,320 Climbing Boston Center
12:48PM 42.4947 -71.2914 215° Southwest 441 507 29,600 840 Climbing Boston Center
12:49PM 42.3956 -71.3914 217° Southwest 446 513 30,000 180 Climbing Boston Center
12:50PM 42.2964 -71.4886 216° Southwest 446 513 30,000  Level Boston Center
12:51PM 42.2011 -71.5742 214° Southwest 446 513 30,000  Level Boston Center
12:52PM 42.1122 -71.6789 221° Southwest 446 513 30,000  Level Boston Center
12:53PM 42.0317 -71.7944 227° Southwest 432 497 30,000  Level Boston Center
12:54PM 41.9469 -71.9069 225° Southwest 432 497 30,000  Level Boston Center
12:55PM 41.8619 -72.0192 225° Southwest 432 497 30,000  Level Boston Center
12:56PM 41.7600 -72.1172 216° Southwest 438 504 30,000  Level Boston Center
12:57PM 41.6583 -72.2067 213° Southwest 443 510 30,000  Level Boston Center
12:58PM 41.5500 -72.3097 215° Southwest 449 517 30,000  Level Boston Center
12:59PM 41.4481 -72.3958 212° Southwest 443 510 30,000  Level Boston Center
01:00PM 41.3439 -72.4897 214° Southwest 443 510 30,000  Level Boston Center
01:01PM 41.2394 -72.5864 215° Southwest 455 524 30,000  Level Boston Center
01:02PM 41.1372 -72.6772 214° Southwest 460 529 30,000  Level Boston Center
01:03PM 41.0350 -72.7647 213° Southwest 452 520 30,000  Level Boston Center
01:04PM 40.9344 -72.8578 215° Southwest 447 514 30,000  Level Boston Center
01:05PM 40.8322 -72.9447 213° Southwest 447 514 30,000  Level Boston Center
01:06PM 40.7483 -73.0181 214° Southwest 447 514 30,000  Level Boston Center
01:07PM 40.6353 -73.1100 212° Southwest 441 507 30,000  Level Boston Center
01:08PM 40.5306 -73.1992 213° Southwest 441 507 30,000  Level Boston Center
01:09PM 40.4258 -73.2853 212° Southwest 441 507 30,000  Level Boston Center
01:10PM 40.2544 -73.4414 215° Southwest 446 513 30,000  Level Washington Center
01:11PM 40.1417 -73.5344 212° Southwest 446 513 30,000  Level Washington Center
01:12PM 40.0389 -73.6186 212° Southwest 441 507 30,000  Level Washington Center
01:13PM 39.9361 -73.7081 214° Southwest 441 507 30,000  Level Washington Center
01:14PM 39.8353 -73.7919 213° Southwest 441 507 30,000 -300 Level Washington Center
01:15PM 39.7325 -73.8781 213° Southwest 441 507 29,500 -840 Descending Washington Center
01:16PM 39.6358 -73.9614 214° Southwest 441 507 28,400 -1,140 Descending Washington Center
01:17PM 39.5408 -74.0389 212° Southwest 428 493 27,300 -1,140 Descending Washington Center
01:18PM 39.4461 -74.1161 212° Southwest 418 481 26,200 -1,320 Descending Washington Center
01:19PM 39.3553 -74.1931 213° Southwest 406 467 24,700 -1,740 Descending Washington Center
01:20PM 39.2644 -74.2700 213° Southwest 406 467 22,700 -2,160 Descending Washington Center
01:21PM 39.1775 -74.3358 210° Southwest 391 450 20,400 -2,220 Descending Washington Center
01:22PM 39.0950 -74.4069 214° Southwest 375 432 18,300 -1,440 Descending Washington Center
01:23PM 39.0142 -74.4722 212° Southwest 360 414 17,600 -1,200 Descending Washington Center
01:24PM 38.9419 -74.5481 219° Southwest 354 407 16,000 -900 Descending Washington Center
01:25PM 38.9178 -74.6553 254° West 320 368 15,900 -60 Descending Washington Center
01:26PM 38.8978 -74.7622 257° West 307 353 15,900  Level Washington Center
01:27PM 38.8756 -74.8744 256° West 312 359 15,900  Level Washington Center
01:28PM 38.8553 -74.9811 256° West 317 365 15,900  Level Washington Center
01:29PM 38.8350 -75.0881 256° West 317 365 15,900  Level Washington Center
01:30PM 38.8147 -75.2000 257° West 317 365 15,900  Level Washington Center
01:31PM 38.8044 -75.2958 262° West 317 365 15,900  Level Washington Center
01:32PM 38.7986 -75.4078 266° West 317 365 15,900  Level Washington Center
01:33PM 38.7903 -75.5172 264° West 311 358 15,900  Level Washington Center
01:34PM 38.7842 -75.6264 266° West 311 358 15,900 -120 Level Washington Center
01:35PM 38.7756 -75.7408 265° West 311 358 15,700 -960 Descending Washington Center
01:36PM 38.7692 -75.8500 266° West 311 358 14,100 -1,620 Descending Washington Center
01:37PM 38.7628 -75.9536 266° West 311 358 12,500 -1,560 Descending Washington Center
01:38PM 38.7539 -76.0575 264° West 311 358 11,000 -780 Descending Washington Center
01:39PM 38.7617 -76.1775 275° West 306 352 11,000 -300 Level Washington Center
01:40PM 38.7717 -76.2839 277° West 306 352 10,500 -540 Descending Washington Center
01:41PM 38.7814 -76.3853 277° West 306 352 10,000 -420 Descending Washington Center
01:42PM 38.7833 -76.4167 275° West 291 335 10,000  Level Potomac TRACON
01:43PM 38.8000 -76.5167 282° West 279 321 10,000 -120 Level Potomac TRACON
01:44PM 38.8000 -76.6167 270° West 277 319 9,800 -900 Descending Potomac TRACON
01:45PM 38.7833 -76.7167 258° West 272 313 8,200 -1,500 Descending Potomac TRACON
01:46PM 38.7833 -76.8167 270° West 263 303 6,800 -1,440 Descending Potomac TRACON
01:47PM 38.7667 -76.9000 256° West 242 278 5,400 -1,440 Descending Potomac TRACON